Time;durP1;ratioP1;P1;durP2;ratioP2;P2;SDS_P1;SDS_P2;PMS_P1;PMS_P2;Temp;Humidity;BMP_temperature;BMP_pressure;BME280_temperature;BME280_humidity;BME280_pressure;Samples;Min_cycle;Max_cycle;Signal;HPM_P1;HPM_P2
2022/06/07 00:00:37;;;;;;;14.00;10.70;;;;;;;21.45;64.18;100739.09;4995065;28;20054;-52
2022/06/07 00:03:04;;;;;;;13.70;10.73;;;;;;;21.46;64.21;100738.16;4994993;28;20054;-53
2022/06/07 00:05:30;;;;;;;12.25;10.48;;;;;;;21.47;64.28;100734.59;4994820;28;20409;-53
2022/06/07 00:07:57;;;;;;;15.88;11.68;;;;;;;21.48;64.07;100733.66;4995062;28;20061;-53
2022/06/07 00:10:25;;;;;;;14.05;10.80;;;;;;;21.47;64.21;100738.09;4994831;28;20057;-53
2022/06/07 00:12:52;;;;;;;13.35;11.90;;;;;;;21.47;64.39;100737.22;4994790;28;20058;-52
2022/06/07 00:15:19;;;;;;;11.57;10.38;;;;;;;21.46;64.50;100739.00;4994597;28;20057;-52
2022/06/07 00:17:46;;;;;;;17.08;12.27;;;;;;;21.47;64.66;100738.09;4994507;28;20605;-52
2022/06/07 00:20:13;;;;;;;13.15;10.88;;;;;;;21.45;64.88;100729.41;4994254;28;20384;-52
2022/06/07 00:22:41;;;;;;;14.02;12.18;;;;;;;21.44;65.01;100732.97;4994798;28;20058;-52
2022/06/07 00:25:11;;;;;;;12.88;10.18;;;;;;;21.39;65.01;100730.59;4993758;28;20050;-54
2022/06/07 00:27:37;;;;;;;13.35;11.23;;;;;;;21.37;65.21;100721.06;4994871;28;20054;-52
2022/06/07 00:30:05;;;;;;;16.25;12.23;;;;;;;21.37;65.17;100721.06;4994385;28;20382;-53
2022/06/07 00:32:33;;;;;;;15.07;13.07;;;;;;;21.36;65.29;100720.19;4994572;28;20050;-52
2022/06/07 00:35:02;;;;;;;12.10;10.55;;;;;;;21.34;65.21;100711.53;4994781;28;20054;-52
2022/06/07 00:37:28;;;;;;;13.60;11.05;;;;;;;21.34;65.27;100711.53;4994665;28;20075;-52
2022/06/07 00:39:55;;;;;;;14.20;12.52;;;;;;;21.33;65.45;100712.44;4994382;28;20164;-51
2022/06/07 00:42:21;;;;;;;15.23;12.57;;;;;;;21.32;65.40;100710.72;4994293;28;20050;-52
2022/06/07 00:44:48;;;;;;;14.38;11.95;;;;;;;21.33;65.51;100706.28;4994270;28;20067;-51
2022/06/07 00:47:17;;;;;;;15.07;12.30;;;;;;;21.32;65.72;100702.81;4994735;28;20054;-52
2022/06/07 00:49:48;;;;;;;15.48;11.55;;;;;;;21.31;65.84;100700.25;4994285;28;20092;-52
2022/06/07 00:52:17;;;;;;;16.13;12.63;;;;;;;21.32;66.15;100697.53;4994501;28;20068;-51
2022/06/07 00:54:44;;;;;;;13.88;11.20;;;;;;;21.32;66.15;100702.81;4994070;28;20371;-53
2022/06/07 00:57:10;;;;;;;13.85;11.77;;;;;;;21.30;66.53;100704.69;4994347;28;20050;-53
2022/06/07 00:59:38;;;;;;;14.88;11.70;;;;;;;21.31;66.77;100702.88;4994038;28;20490;-52
2022/06/07 01:02:05;;;;;;;12.77;11.13;;;;;;;21.28;66.94;100706.53;4993914;28;20104;-52
2022/06/07 01:04:32;;;;;;;13.63;11.38;;;;;;;21.27;66.90;100696.09;4993600;28;20061;-53
2022/06/07 01:12:27;;;;;;;;;;;;;;;21.18;67.42;100689.47;4994016;28;20201;-51
2022/06/07 01:14:54;;;;;;;14.52;10.57;;;;;;;21.21;67.29;100694.59;4994021;28;19987;-53
2022/06/07 01:17:20;;;;;;;14.98;11.00;;;;;;;21.23;67.21;100682.22;4993877;28;20065;-54
2022/06/07 01:19:47;;;;;;;13.20;11.10;;;;;;;21.23;67.41;100684.84;4993552;28;20062;-55
2022/06/07 01:22:16;;;;;;;15.13;12.23;;;;;;;21.25;67.48;100685.63;4993872;28;20054;-54
2022/06/07 01:24:44;;;;;;;17.88;11.73;;;;;;;21.25;67.46;100682.97;4993937;28;20062;-52
2022/06/07 01:27:10;;;;;;;17.92;13.88;;;;;;;21.25;67.33;100680.34;4993875;28;20336;-54
2022/06/07 01:29:38;;;;;;;16.10;12.55;;;;;;;21.26;67.25;100676.78;4993727;28;20112;-55
2022/06/07 01:32:06;;;;;;;14.43;12.23;;;;;;;21.25;67.20;100669.81;4993870;28;20050;-56
2022/06/07 01:34:33;;;;;;;17.05;13.55;;;;;;;21.22;67.15;100669.94;4993429;28;20054;-54
2022/06/07 01:37:01;;;;;;;16.90;12.98;;;;;;;21.20;67.13;100658.63;4993005;28;20463;-53
2022/06/07 01:42:13;;;;;;;;;;;;;;;21.03;66.95;100648.97;4993651;28;20510;-55
2022/06/07 01:44:43;;;;;;;15.93;12.45;;;;;;;21.02;66.92;100651.69;4993622;28;19926;-53
2022/06/07 01:47:12;;;;;;;13.90;12.48;;;;;;;21.01;66.99;100650.00;4993572;28;20054;-52
2022/06/07 01:49:39;;;;;;;15.27;12.85;;;;;;;21.01;67.34;100644.72;4993144;28;20369;-53
2022/06/07 01:52:06;;;;;;;15.88;12.75;;;;;;;21.01;67.42;100647.38;5003029;28;20533;-55
2022/06/07 01:54:34;;;;;;;13.45;11.23;;;;;;;20.99;67.39;100642.19;5013017;28;20057;-54
2022/06/07 01:57:01;;;;;;;13.43;10.18;;;;;;;21.00;67.42;100648.28;5005004;28;20113;-54
2022/06/07 01:59:28;;;;;;;15.32;12.52;;;;;;;20.99;67.21;100651.88;4993292;28;20050;-55
2022/06/07 02:01:54;;;;;;;18.33;11.98;;;;;;;20.99;67.39;100646.59;4993286;28;20049;-55
2022/06/07 02:04:22;;;;;;;13.63;11.27;;;;;;;20.98;67.51;100637.00;4993158;28;20054;-56
2022/06/07 02:06:49;;;;;;;14.23;11.25;;;;;;;20.98;67.47;100639.63;4993059;28;20046;-56
2022/06/07 02:09:16;;;;;;;13.35;11.18;;;;;;;20.97;67.67;100630.00;4993103;28;20058;-53
2022/06/07 02:11:45;;;;;;;12.15;10.30;;;;;;;20.95;67.63;100624.81;4992948;28;20054;-53
2022/06/07 02:14:12;;;;;;;13.88;11.52;;;;;;;20.93;67.75;100620.56;4993123;28;20065;-53
2022/06/07 02:16:39;;;;;;;11.95;10.30;;;;;;;20.92;67.79;100621.50;4992704;28;20057;-56
2022/06/07 02:19:06;;;;;;;14.88;10.30;;;;;;;20.91;68.02;100628.56;4992652;28;20047;-56
2022/06/07 02:21:34;;;;;;;11.25;10.05;;;;;;;20.92;68.01;100634.69;4992614;28;20050;-55
2022/06/07 02:24:00;;;;;;;13.80;11.18;;;;;;;20.91;67.86;100627.72;4992877;28;20125;-56
2022/06/07 02:26:29;;;;;;;14.75;10.50;;;;;;;20.92;67.81;100629.41;4993407;28;20054;-56
2022/06/07 02:29:02;;;;;;;13.27;10.00;;;;;;;20.94;68.04;100633.66;4993082;28;20398;-52
2022/06/07 02:31:31;;;;;;;13.70;10.77;;;;;;;20.96;67.92;100628.31;4993189;28;20050;-52
2022/06/07 02:34:00;;;;;;;12.00;10.73;;;;;;;20.93;67.85;100625.84;4993291;28;20058;-52
2022/06/07 02:36:28;;;;;;;14.20;11.43;;;;;;;20.92;67.93;100637.31;4993084;28;20112;-52
2022/06/07 02:38:55;;;;;;;13.48;10.70;;;;;;;20.93;67.86;100646.91;4992912;28;20065;-52
2022/06/07 02:41:26;;;;;;;13.52;11.32;;;;;;;20.92;67.98;100645.22;4992844;28;20050;-53
2022/06/07 02:43:53;;;;;;;16.05;12.32;;;;;;;20.92;67.58;100629.41;4993091;28;20089;-54
2022/06/07 02:46:20;;;;;;;10.90;9.57;;;;;;;20.91;67.66;100639.09;4993029;28;20057;-54
2022/06/07 02:52:09;;;;;;;13.18;9.82;;;;;;;20.79;67.84;100630.03;4996491;28;20046;-54
2022/06/07 02:54:35;;;;;;;13.88;10.43;;;;;;;20.78;67.75;100635.38;4996714;28;20094;-52
2022/06/07 02:57:02;;;;;;;12.10;10.82;;;;;;;20.73;67.91;100632.97;4996640;28;20074;-53
2022/06/07 02:59:29;;;;;;;11.95;10.10;;;;;;;20.72;67.93;100633.06;4996284;28;20100;-55
2022/06/07 03:01:57;;;;;;;15.77;11.48;;;;;;;20.69;68.02;100633.22;4996108;28;20672;-55
2022/06/07 03:04:24;;;;;;;18.08;12.38;;;;;;;20.67;67.89;100633.31;4996458;28;20054;-53
2022/06/07 03:06:51;;;;;;;13.95;10.85;;;;;;;20.67;67.79;100635.09;4996150;28;20427;-53
2022/06/07 03:09:18;;;;;;;16.40;10.65;;;;;;;20.65;67.89;100631.69;4996199;28;20065;-54
2022/06/07 03:11:45;;;;;;;15.88;11.57;;;;;;;20.63;68.18;100629.13;4995947;28;20054;-52
2022/06/07 03:14:11;;;;;;;12.98;10.75;;;;;;;20.61;68.33;100633.63;4996351;28;20054;-52
2022/06/07 03:16:39;;;;;;;13.80;10.63;;;;;;;20.61;68.22;100638.03;4996370;28;20058;-55
2022/06/07 03:19:07;;;;;;;17.80;12.95;;;;;;;20.61;68.48;100636.25;4995835;28;20050;-52
2022/06/07 03:21:34;;;;;;;13.73;11.02;;;;;;;20.62;68.19;100643.22;4995756;28;20042;-54
2022/06/07 03:24:01;;;;;;;16.67;12.00;;;;;;;20.64;68.55;100637.88;4996179;28;20066;-54
2022/06/07 03:26:29;;;;;;;15.13;12.32;;;;;;;20.64;68.56;100636.09;4996099;28;20046;-52
2022/06/07 03:28:56;;;;;;;14.95;11.98;;;;;;;20.66;68.59;100633.38;4995843;28;20058;-55
2022/06/07 03:31:23;;;;;;;13.88;10.75;;;;;;;20.64;68.73;100644.00;4995886;28;20046;-54
2022/06/07 03:33:51;;;;;;;14.40;12.20;;;;;;;20.64;68.61;100646.63;4995498;28;20194;-55
2022/06/07 03:36:22;;;;;;;16.55;12.82;;;;;;;20.63;68.72;100650.19;4995780;28;20116;-53
2022/06/07 03:38:52;;;;;;;15.55;11.73;;;;;;;20.61;68.93;100648.56;4995623;28;20054;-55
2022/06/07 03:41:21;;;;;;;13.45;11.40;;;;;;;20.58;69.16;100652.22;4995950;28;20108;-52
2022/06/07 03:43:48;;;;;;;16.10;12.48;;;;;;;20.58;69.08;100652.22;4995492;28;20470;-53
2022/06/07 03:46:19;;;;;;;14.90;11.95;;;;;;;20.60;69.19;100658.25;4995508;28;20411;-52
2022/06/07 03:48:47;;;;;;;18.75;13.70;;;;;;;20.61;69.06;100652.06;4995793;28;20050;-53
2022/06/07 03:51:16;;;;;;;14.55;11.98;;;;;;;20.62;68.94;100653.75;4995309;28;20460;-53
2022/06/07 03:53:44;;;;;;;14.00;11.43;;;;;;;20.62;69.06;100659.03;4995257;28;20061;-54
2022/06/07 03:56:12;;;;;;;14.75;12.38;;;;;;;20.59;69.09;100653.91;4995375;28;20066;-54
2022/06/07 03:58:39;;;;;;;15.68;13.20;;;;;;;20.61;69.08;100652.06;4995212;28;20068;-55
2022/06/07 04:01:08;;;;;;;14.25;12.13;;;;;;;20.62;69.32;100648.50;4995137;28;20090;-56
2022/06/07 04:03:35;;;;;;;15.45;11.93;;;;;;;20.65;69.32;100653.59;4995387;28;20361;-55
2022/06/07 04:06:03;;;;;;;14.45;12.40;;;;;;;20.67;69.27;100651.75;4995133;28;20051;-54
2022/06/07 04:08:31;;;;;;;14.77;13.10;;;;;;;20.70;69.34;100643.69;4995033;28;20069;-51
2022/06/07 04:11:02;;;;;;;18.67;14.45;;;;;;;20.74;69.18;100653.13;4994878;28;20368;-52
2022/06/07 04:13:31;;;;;;;15.43;12.52;;;;;;;20.76;69.23;100651.25;4995058;28;20050;-52
2022/06/07 04:15:58;;;;;;;13.77;11.38;;;;;;;20.78;69.15;100649.41;4995161;28;20062;-52
2022/06/07 04:18:25;;;;;;;13.68;12.13;;;;;;;20.81;69.25;100645.78;4995012;28;20083;-51
2022/06/07 04:20:54;;;;;;;14.88;11.48;;;;;;;20.85;69.07;100643.84;4994771;28;20391;-52
2022/06/07 04:23:22;;;;;;;17.77;12.35;;;;;;;20.90;68.94;100636.53;4994525;28;20696;-55
2022/06/07 04:25:49;;;;;;;13.63;11.15;;;;;;;20.96;68.79;100641.50;4994766;28;20381;-55
2022/06/07 04:28:20;;;;;;;14.35;11.93;;;;;;;21.08;68.32;100643.47;4994743;28;20061;-53
2022/06/07 04:30:48;;;;;;;12.02;10.73;;;;;;;21.24;68.14;100641.75;4994810;28;20062;-51
2022/06/07 04:33:17;;;;;;;14.00;10.70;;;;;;;21.34;67.83;100637.69;4994839;28;20086;-52
2022/06/07 04:35:45;;;;;;;12.45;10.65;;;;;;;21.45;67.35;100645.03;4994826;28;20074;-52
2022/06/07 04:38:12;;;;;;;14.50;10.93;;;;;;;21.53;67.11;100645.44;4994507;28;20391;-51
2022/06/07 04:40:39;;;;;;;14.98;11.10;;;;;;;21.60;66.83;100648.59;4994401;28;20050;-53
2022/06/07 04:43:07;;;;;;;14.77;10.05;;;;;;;21.68;66.60;100649.00;4994648;28;20054;-55
2022/06/07 04:45:35;;;;;;;16.42;10.38;;;;;;;21.83;66.14;100645.50;4994695;28;20050;-53
2022/06/07 04:48:02;;;;;;;13.25;10.80;;;;;;;22.03;65.75;100647.91;4994613;28;20073;-54
2022/06/07 04:50:29;;;;;;;16.35;11.15;;;;;;;22.28;64.95;100641.22;4994324;28;20046;-55
2022/06/07 04:52:55;;;;;;;13.35;10.70;;;;;;;22.57;64.06;100645.66;4994569;28;20120;-55
2022/06/07 04:55:23;;;;;;;14.05;10.48;;;;;;;22.86;63.26;100645.72;4994278;28;20054;-52
2022/06/07 04:57:49;;;;;;;14.95;11.30;;;;;;;23.18;62.07;100652.53;4994308;28;20054;-55
2022/06/07 05:00:18;;;;;;;16.63;10.98;;;;;;;23.50;61.30;100649.69;4994133;28;20050;-55
2022/06/07 05:02:48;;;;;;;14.82;10.85;;;;;;;23.80;59.86;100653.03;4994376;28;20050;-54
2022/06/07 05:05:18;;;;;;;18.92;11.25;;;;;;;23.96;59.27;100646.78;4994059;28;20061;-53
2022/06/07 05:07:45;;;;;;;16.42;10.93;;;;;;;24.07;58.58;100644.28;4994437;28;20058;-56
2022/06/07 05:10:16;;;;;;;17.02;10.18;;;;;;;24.15;58.20;100637.50;4993760;28;20058;-54
2022/06/07 05:12:43;;;;;;;16.70;11.68;;;;;;;24.19;58.13;100635.50;4993304;28;20428;-55
2022/06/07 05:15:11;;;;;;;15.45;10.77;;;;;;;24.18;58.05;100641.75;4993886;28;20056;-55
2022/06/07 05:17:38;;;;;;;16.05;11.98;;;;;;;24.17;58.05;100642.72;4993751;28;20518;-55
2022/06/07 05:20:08;;;;;;;14.90;12.15;;;;;;;24.18;57.84;100631.16;4993925;28;20143;-56
2022/06/07 05:22:35;;;;;;;18.30;12.45;;;;;;;24.30;57.56;100634.81;4999851;28;20136;-55
2022/06/07 05:25:02;;;;;;;18.27;13.10;;;;;;;24.41;57.02;100638.44;5013078;28;20061;-52
2022/06/07 05:27:38;;;;;;;17.23;12.75;;;;;;;24.61;56.37;100638.91;5001745;28;20534;-52
2022/06/07 05:30:07;;;;;;;13.57;11.18;;;;;;;24.80;55.63;100642.00;4993568;28;20058;-52
2022/06/07 05:32:33;;;;;;;13.90;11.00;;;;;;;24.95;55.51;100646.22;4993513;28;20435;-52
2022/06/07 05:35:00;;;;;;;16.27;11.27;;;;;;;25.10;55.07;100653.16;4993517;28;20050;-55
2022/06/07 05:37:28;;;;;;;14.05;10.45;;;;;;;25.22;54.46;100645.31;4993589;28;20054;-54
2022/06/07 05:39:55;;;;;;;16.10;11.00;;;;;;;25.29;54.50;100649.22;4993436;28;20104;-55
2022/06/07 05:42:22;;;;;;;12.80;10.52;;;;;;;25.37;54.16;100652.16;4993927;28;20058;-55
2022/06/07 05:44:48;;;;;;;16.27;11.20;;;;;;;25.53;53.52;100655.44;4993746;28;20050;-56
2022/06/07 05:47:15;;;;;;;18.20;10.88;;;;;;;25.68;53.10;100657.00;4993286;28;20046;-52
2022/06/07 05:49:43;;;;;;;14.82;10.98;;;;;;;25.88;52.50;100660.00;4993704;28;20073;-52
2022/06/07 05:52:10;;;;;;;15.98;11.02;;;;;;;26.06;52.12;100656.03;4993744;28;20082;-53
2022/06/07 05:54:39;;;;;;;16.80;11.57;;;;;;;26.23;51.39;100660.91;4993208;28;20149;-53
2022/06/07 05:57:07;;;;;;;18.30;11.27;;;;;;;26.44;51.34;100668.28;4993589;28;20061;-53
2022/06/07 05:59:34;;;;;;;16.42;10.32;;;;;;;26.62;50.60;100651.78;4993426;28;20058;-55
2022/06/07 06:02:01;;;;;;;24.10;10.48;;;;;;;26.83;49.68;100654.59;4990031;28;20050;-55
2022/06/07 06:04:28;;;;;;;12.32;9.63;;;;;;;27.02;49.33;100659.34;4990218;28;20050;-52
2022/06/07 06:06:56;;;;;;;12.68;9.95;;;;;;;27.20;48.62;100657.09;4984934;28;20124;-55
2022/06/07 06:12:06;;;;;;;19.83;9.90;;;;;;;27.46;48.15;100663.00;4959938;28;20050;-53
2022/06/07 06:14:33;;;;;;;19.40;10.65;;;;;;;27.61;47.90;100657.34;4992988;28;20054;-54
2022/06/07 06:16:59;;;;;;;21.45;11.00;;;;;;;27.77;47.38;100666.75;4993075;28;20060;-54
2022/06/07 06:19:26;;;;;;;14.90;10.02;;;;;;;27.92;47.06;100670.81;4993158;28;20124;-54
2022/06/07 06:21:53;;;;;;;13.15;10.50;;;;;;;28.09;46.55;100669.41;4992670;28;20050;-53
2022/06/07 06:24:23;;;;;;;11.77;9.45;;;;;;;28.21;46.04;100661.28;4995295;28;20054;-52
2022/06/07 06:26:51;;;;;;;12.68;8.93;;;;;;;28.34;45.54;100654.94;4996684;28;20137;-53
2022/06/07 06:29:20;;;;;;;11.07;8.82;;;;;;;28.46;45.15;100659.25;4997012;28;20137;-55
2022/06/07 06:31:50;;;;;;;9.75;8.75;;;;;;;28.58;44.89;100659.03;4996904;28;20050;-53
2022/06/07 06:34:17;;;;;;;15.32;8.48;;;;;;;28.70;44.85;100667.84;4995901;28;20058;-55
2022/06/07 06:36:44;;;;;;;10.68;8.60;;;;;;;28.83;44.12;100668.47;4996387;28;20364;-55
2022/06/07 06:39:12;;;;;;;12.13;8.45;;;;;;;28.95;43.56;100663.09;4996543;28;20133;-53
2022/06/07 06:41:41;;;;;;;9.80;7.68;;;;;;;29.10;43.10;100673.28;4996366;28;20054;-55
2022/06/07 06:44:10;;;;;;;8.63;6.60;;;;;;;29.16;42.83;100670.09;4996903;28;20130;-57
2022/06/07 06:46:40;;;;;;;7.32;6.40;;;;;;;29.23;42.17;100659.75;4996316;28;20054;-51
2022/06/07 06:49:08;;;;;;;7.07;6.05;;;;;;;29.26;42.05;100669.31;4996685;28;20058;-51
2022/06/07 06:51:35;;;;;;;8.75;6.22;;;;;;;29.32;41.52;100664.25;4996594;28;20108;-50
2022/06/07 06:54:04;;;;;;;6.55;5.25;;;;;;;29.35;41.28;100669.34;4996505;28;20055;-51
2022/06/07 06:56:31;;;;;;;8.52;6.65;;;;;;;29.39;41.10;100665.41;4996226;28;20104;-51
2022/06/07 06:58:59;;;;;;;11.18;6.18;;;;;;;29.51;41.03;100659.00;4993853;28;21362;-55
2022/06/07 07:01:29;;;;;;;18.80;6.90;;;;;;;29.68;41.00;100670.88;4995268;28;20042;-52
2022/06/07 07:03:59;;;;;;;10.60;6.28;;;;;;;29.84;40.68;100665.00;4987325;28;20054;-53
2022/06/07 07:06:27;;;;;;;6.93;6.22;;;;;;;29.99;40.51;100660.09;4984240;28;20057;-52
2022/06/07 07:08:54;;;;;;;8.20;5.88;;;;;;;30.15;39.67;100657.72;4986773;28;20396;-51
2022/06/07 07:11:24;;;;;;;6.05;5.45;;;;;;;30.31;38.93;100662.53;4994494;28;20472;-52
2022/06/07 07:13:54;;;;;;;16.10;6.32;;;;;;;30.44;38.96;100663.09;4995823;28;20120;-54
2022/06/07 07:16:25;;;;;;;8.65;6.55;;;;;;;30.60;38.69;100663.38;4995908;28;20112;-53
2022/06/07 07:18:52;;;;;;;11.02;6.25;;;;;;;30.66;38.54;100665.47;4995954;28;20132;-53
2022/06/07 07:21:23;;;;;;;13.75;6.47;;;;;;;30.78;38.17;100660.81;4995860;28;20194;-56
2022/06/07 07:23:50;;;;;;;9.02;6.47;;;;;;;30.85;37.72;100661.94;4995330;28;20042;-55
2022/06/07 07:26:21;;;;;;;7.47;6.78;;;;;;;30.93;37.46;100658.53;4995875;28;20046;-54
2022/06/07 07:28:49;;;;;;;6.97;6.28;;;;;;;31.00;37.74;100654.25;4995492;28;20128;-52
2022/06/07 07:31:18;;;;;;;10.32;6.75;;;;;;;31.07;37.35;100658.03;4995487;28;20137;-52
2022/06/07 07:33:45;;;;;;;6.82;6.13;;;;;;;31.17;37.32;100660.72;4995266;28;20133;-53
2022/06/07 07:36:12;;;;;;;8.80;6.65;;;;;;;31.20;36.96;100661.25;4995549;28;20466;-56
2022/06/07 07:38:41;;;;;;;9.40;6.70;;;;;;;31.24;36.50;100667.19;4996036;28;20129;-57
2022/06/07 07:41:17;;;;;;;6.93;5.93;;;;;;;31.24;36.43;100662.69;4995369;28;20435;-54
2022/06/07 07:43:44;;;;;;;7.15;5.95;;;;;;;31.30;36.25;100656.72;4994897;28;20061;-57
2022/06/07 07:46:12;;;;;;;8.43;7.00;;;;;;;31.45;36.24;100664.25;4994995;28;20376;-54
2022/06/07 07:48:40;;;;;;;7.10;6.38;;;;;;;31.48;35.65;100670.16;4994930;28;20090;-53
2022/06/07 07:51:08;;;;;;;8.82;7.20;;;;;;;31.52;35.92;100670.69;4994575;28;20136;-54
2022/06/07 07:53:35;;;;;;;6.82;6.22;;;;;;;31.66;35.70;100678.22;4994860;28;20057;-56
2022/06/07 07:56:08;;;;;;;9.68;6.18;;;;;;;31.76;35.28;100673.72;4994558;28;20666;-53
2022/06/07 07:58:36;;;;;;;8.93;5.57;;;;;;;31.88;35.23;100672.50;4994923;28;20459;-53
2022/06/07 08:01:08;;;;;;;6.53;5.75;;;;;;;32.00;34.53;100676.63;4995065;28;20066;-55
2022/06/07 08:03:36;;;;;;;7.35;5.90;;;;;;;32.12;34.18;100673.72;4986848;28;20042;-55
2022/06/07 08:06:05;;;;;;;7.13;6.28;;;;;;;32.28;34.10;100669.41;4992253;28;20051;-53
2022/06/07 08:08:32;;;;;;;6.78;5.45;;;;;;;32.34;34.07;100670.63;4994845;28;20054;-52
2022/06/07 08:10:59;;;;;;;6.78;5.93;;;;;;;32.29;34.10;100668.41;4995118;28;20062;-53
2022/06/07 08:13:27;;;;;;;16.98;7.00;;;;;;;32.34;34.23;100673.31;4994309;28;20046;-52
2022/06/07 08:15:54;;;;;;;12.25;6.75;;;;;;;32.28;34.26;100674.78;4989334;28;20062;-54
2022/06/07 08:18:23;;;;;;;7.65;5.93;;;;;;;32.30;34.37;100666.56;4981316;28;20055;-52
2022/06/07 08:20:53;;;;;;;6.95;6.07;;;;;;;32.17;34.32;100674.09;4983979;28;20046;-55
2022/06/07 08:23:20;;;;;;;8.27;6.03;;;;;;;32.11;34.28;100683.59;4993927;28;20138;-52
2022/06/07 08:25:47;;;;;;;6.95;6.20;;;;;;;32.06;34.65;100674.34;4984479;28;20506;-55
2022/06/07 08:28:14;;;;;;;6.50;5.85;;;;;;;32.11;34.51;100683.59;4983761;28;20046;-56
2022/06/07 08:30:46;;;;;;;6.05;5.45;;;;;;;32.29;33.91;100671.09;4994221;28;20054;-53
2022/06/07 08:38:41;;;;;;;19.25;6.00;;;;;;;32.96;32.88;100662.53;4986686;28;19960;-57
2022/06/07 08:41:19;;;;;;;10.88;5.55;;;;;;;33.17;32.31;100663.81;4991001;28;20105;-53
2022/06/07 08:43:46;;;;;;;6.32;5.20;;;;;;;33.36;32.05;100670.00;4980327;28;20050;-54
2022/06/07 08:46:19;;;;;;;10.32;5.55;;;;;;;33.47;31.65;100672.38;4993463;28;20505;-54
2022/06/07 08:48:47;;;;;;;5.97;4.82;;;;;;;33.45;31.61;100669.03;4989158;28;20093;-55
2022/06/07 08:51:21;;;;;;;9.00;4.60;;;;;;;33.42;31.88;100677.41;4994296;28;20146;-58
2022/06/07 08:53:52;;;;;;;7.32;5.07;;;;;;;33.23;32.02;100681.97;4994917;28;20057;-54
2022/06/07 08:56:23;;;;;;;34.60;7.60;;;;;;;33.64;31.68;100682.19;4994503;28;20108;-56
2022/06/07 08:58:52;;;;;;;9.95;5.85;;;;;;;33.63;31.50;100680.50;4989778;28;20062;-56
2022/06/07 09:01:28;;;;;;;5.40;4.90;;;;;;;33.36;31.43;100683.44;4988994;28;20539;-55
2022/06/07 09:04:04;;;;;;;9.80;5.30;;;;;;;33.20;31.54;100682.28;4995135;28;20180;-53
2022/06/07 09:06:34;;;;;;;10.95;4.95;;;;;;;33.17;32.02;100674.56;4994062;28;20050;-54
2022/06/07 09:09:02;;;;;;;5.93;4.80;;;;;;;33.13;31.83;100669.69;4994605;28;20117;-57
2022/06/07 09:14:29;;;;;;;;;;;;;;;33.13;31.29;100669.69;4946349;29;20062;-55
2022/06/07 09:16:57;;;;;;;13.07;5.03;;;;;;;33.22;32.10;100661.50;4954771;28;19997;-57
2022/06/07 09:19:28;;;;;;;5.28;4.10;;;;;;;33.31;31.46;100666.97;4954041;29;20461;-55
2022/06/07 09:21:58;;;;;;;5.35;4.22;;;;;;;33.39;31.00;100658.94;4953603;29;20054;-53
2022/06/07 09:24:30;;;;;;;6.15;4.05;;;;;;;33.49;30.39;100659.63;4949105;28;20122;-58
2022/06/07 09:27:17;;;;;;;8.07;4.97;;;;;;;33.66;30.23;100661.34;4947598;29;20131;-53
2022/06/07 09:29:55;;;;;;;6.68;4.53;;;;;;;33.79;30.31;100656.34;4948287;29;20464;-58
2022/06/07 09:32:30;;;;;;;7.65;4.45;;;;;;;33.85;30.43;100661.13;4952726;29;20051;-55
2022/06/07 09:35:02;;;;;;;10.77;4.70;;;;;;;33.96;30.29;100656.44;4954328;29;20047;-56
2022/06/07 09:37:38;;;;;;;6.15;4.53;;;;;;;34.07;30.16;100653.41;4954658;28;20151;-56
2022/06/07 09:40:26;;;;;;;5.45;4.50;;;;;;;34.10;29.36;100658.47;4954607;29;20134;-53
2022/06/07 09:43:02;;;;;;;5.30;4.65;;;;;;;33.96;29.58;100667.19;4954508;29;20043;-55
2022/06/07 09:45:36;;;;;;;7.30;4.28;;;;;;;33.76;30.19;100667.44;4953869;28;20051;-54
2022/06/07 09:48:30;;;;;;;4.72;4.32;;;;;;;33.51;30.15;100665.69;4946033;29;20051;-56
2022/06/07 09:51:01;;;;;;;5.68;5.00;;;;;;;33.35;30.89;100663.78;4954953;29;20061;-55
2022/06/07 09:53:35;;;;;;;6.90;5.05;;;;;;;33.24;31.06;100667.53;4953834;29;20047;-53
2022/06/07 09:56:37;;;;;;;6.15;4.50;;;;;;;33.09;31.17;100669.16;4954748;28;20133;-53
2022/06/07 09:59:29;;;;;;;5.25;4.75;;;;;;;32.92;31.10;100667.38;4954585;28;20055;-55
2022/06/07 10:02:04;;;;;;;7.32;5.32;;;;;;;32.81;31.94;100656.91;4946722;29;20117;-57
2022/06/07 10:04:52;;;;;;;5.72;4.90;;;;;;;32.76;31.72;100646.59;4956255;29;20047;-57
2022/06/07 10:07:32;;;;;;;5.22;3.90;;;;;;;32.68;30.86;100656.44;4950438;29;20076;-57
2022/06/07 10:10:21;;;;;;;6.32;3.70;;;;;;;32.64;29.69;100659.44;4955280;29;20047;-54
2022/06/07 10:13:08;;;;;;;4.78;4.05;;;;;;;32.53;30.13;100657.03;4970224;28;20065;-55
2022/06/07 10:15:44;;;;;;;5.75;4.00;;;;;;;32.46;30.91;100653.28;4977431;28;20066;-52
2022/06/07 10:18:24;;;;;;;4.20;3.80;;;;;;;32.51;30.22;100647.44;4993698;28;20054;-58
2022/06/07 10:21:16;;;;;;;9.13;4.50;;;;;;;32.54;29.13;100658.72;4994157;28;20137;-55
2022/06/07 10:24:35;;;;;;;10.43;3.85;;;;;;;32.51;29.56;100658.19;4987221;28;20050;-58
2022/06/07 10:27:17;;;;;;;9.68;4.03;;;;;;;32.50;29.59;100654.66;4991031;28;20060;-57
2022/06/07 10:30:42;;;;;;;4.20;3.65;;;;;;;32.54;29.34;100649.81;4980003;28;20054;-56
2022/06/07 10:33:39;;;;;;;4.53;3.38;;;;;;;32.62;28.86;100645.34;4992979;28;20399;-56
2022/06/07 10:36:28;;;;;;;3.80;3.50;;;;;;;32.56;28.88;100642.44;4992576;28;20049;-52
2022/06/07 10:39:16;;;;;;;4.80;3.08;;;;;;;32.38;28.57;100642.50;4992894;28;20061;-55
2022/06/07 10:41:55;;;;;;;4.78;2.97;;;;;;;32.28;28.59;100650.63;4978555;28;20046;-56
2022/06/07 10:44:32;;;;;;;6.13;3.00;;;;;;;32.22;28.30;100642.31;4992516;28;20474;-57
2022/06/07 10:47:15;;;;;;;7.55;2.88;;;;;;;32.13;28.03;100649.44;4992839;28;20046;-56
2022/06/07 10:49:53;;;;;;;5.32;2.97;;;;;;;32.10;27.92;100648.91;4978535;28;20064;-57
2022/06/07 10:52:33;;;;;;;9.57;3.22;;;;;;;32.07;28.70;100650.06;4988789;28;20060;-55
2022/06/07 10:55:13;;;;;;;4.22;3.53;;;;;;;32.07;28.86;100654.56;4992664;28;20472;-56
2022/06/07 10:57:51;;;;;;;4.47;3.03;;;;;;;32.10;29.12;100654.25;4986102;28;20502;-53
2022/06/07 11:00:32;;;;;;;8.27;3.10;;;;;;;32.14;28.48;100661.00;4991318;28;20054;-54
2022/06/07 11:03:07;;;;;;;26.27;4.93;;;;;;;32.15;29.35;100662.69;4985586;28;20047;-56
2022/06/07 11:11:14;;;;;;;12.55;8.27;;;;;;;31.76;33.24;100654.97;4970313;28;20460;-54
2022/06/07 11:13:50;;;;;;;15.40;9.00;;;;;;;31.48;34.08;100653.25;4990087;28;20069;-55
2022/06/07 11:16:23;;;;;;;12.15;8.55;;;;;;;31.20;34.66;100645.19;4991478;28;20110;-53
2022/06/07 11:18:50;;;;;;;13.38;7.80;;;;;;;31.06;34.97;100649.16;4996708;28;20120;-56
2022/06/07 11:21:30;;;;;;;12.82;8.35;;;;;;;30.93;35.41;100642.47;4996202;28;20128;-56
2022/06/07 11:24:06;;;;;;;32.17;11.30;;;;;;;30.79;35.80;100650.97;4995806;28;20057;-55
2022/06/07 11:26:57;;;;;;;16.98;9.80;;;;;;;30.48;35.92;100659.13;4995858;28;20779;-56
2022/06/07 11:29:25;;;;;;;13.40;8.50;;;;;;;30.01;37.21;100656.28;4994703;28;20046;-53
2022/06/07 11:31:53;;;;;;;38.20;10.15;;;;;;;29.85;37.83;100661.34;4995698;28;20050;-56
2022/06/07 11:34:24;;;;;;;18.05;9.25;;;;;;;29.72;38.39;100660.78;4995672;28;20050;-53
2022/06/07 11:36:56;;;;;;;16.92;8.93;;;;;;;29.57;38.32;100651.44;4995676;28;20050;-56
2022/06/07 11:39:50;;;;;;;13.05;8.93;;;;;;;29.33;38.44;100644.59;4995850;28;20459;-54
2022/06/07 11:42:33;;;;;;;14.70;8.52;;;;;;;28.85;39.49;100644.38;4996302;28;20055;-56
2022/06/07 11:45:19;;;;;;;14.43;8.85;;;;;;;28.52;40.45;100648.91;4997183;28;20125;-56
2022/06/07 11:48:17;;;;;;;13.35;7.85;;;;;;;28.18;41.01;100647.38;4981262;28;20097;-53
2022/06/07 11:50:54;;;;;;;11.18;7.80;;;;;;;27.90;41.49;100652.28;4995550;28;20145;-52
2022/06/07 11:53:26;;;;;;;26.88;8.68;;;;;;;27.62;42.00;100645.72;4994867;28;20054;-53
2022/06/07 11:56:02;;;;;;;18.38;9.40;;;;;;;27.54;42.03;100655.22;4995153;28;20046;-55
2022/06/07 11:58:51;;;;;;;15.18;8.45;;;;;;;27.47;42.01;100659.34;4987160;28;20054;-56
2022/06/07 12:01:34;;;;;;;10.57;6.90;;;;;;;27.39;42.04;100673.28;4994595;28;20458;-52